createdAt,value
2023-11-23T00:00:32.873Z,4.00
2023-11-23T00:03:01.016Z,4.00
2023-11-23T00:05:29.961Z,3.90
2023-11-23T00:07:58.231Z,3.80
2023-11-23T00:10:27.765Z,3.90
2023-11-23T00:12:55.825Z,4.00
2023-11-23T00:15:24.030Z,4.00
2023-11-23T00:17:53.634Z,4.00
2023-11-23T00:20:22.204Z,4.10
2023-11-23T00:22:50.346Z,4.10
2023-11-23T00:25:18.506Z,4.10
2023-11-23T00:27:48.011Z,4.10
2023-11-23T00:30:16.712Z,4.00
2023-11-23T00:32:44.886Z,4.00
2023-11-23T00:35:13.013Z,4.00
2023-11-23T00:37:41.060Z,3.90
2023-11-23T00:40:10.035Z,4.00
2023-11-23T00:42:38.113Z,3.90
2023-11-23T00:45:09.731Z,4.00
2023-11-23T00:47:38.103Z,3.90
2023-11-23T00:50:07.473Z,3.90
2023-11-23T00:52:35.621Z,3.90
2023-11-23T00:55:05.800Z,3.90
2023-11-23T00:57:35.773Z,4.00
2023-11-23T01:00:07.189Z,4.00
2023-11-23T01:02:37.223Z,4.00
2023-11-23T01:05:06.160Z,4.00
2023-11-23T01:07:35.560Z,4.10
2023-11-23T01:10:03.788Z,4.10
2023-11-23T01:12:31.923Z,4.10
2023-11-23T01:15:00.255Z,4.10
2023-11-23T01:17:28.376Z,4.10
2023-11-23T01:19:57.965Z,4.10
2023-11-23T01:22:26.084Z,4.10
2023-11-23T01:24:54.170Z,4.10
2023-11-23T01:27:22.204Z,4.10
2023-11-23T01:29:50.301Z,4.10
2023-11-23T01:32:18.549Z,4.10
2023-11-23T01:34:46.607Z,4.10
2023-11-23T01:37:16.121Z,4.20
2023-11-23T01:39:44.880Z,4.20
2023-11-23T01:42:13.033Z,4.20
2023-11-23T01:44:41.112Z,4.20
2023-11-23T01:47:13.020Z,4.20
2023-11-23T01:49:43.282Z,4.20
2023-11-23T01:52:12.144Z,4.20
2023-11-23T01:54:41.908Z,4.20
2023-11-23T01:57:11.075Z,4.20
2023-11-23T01:59:39.639Z,4.20
2023-11-23T02:02:08.522Z,4.20
2023-11-23T02:04:36.787Z,4.30
2023-11-23T02:07:05.112Z,4.30
2023-11-23T02:09:33.311Z,4.30
2023-11-23T02:12:02.896Z,4.20
2023-11-23T02:14:32.296Z,4.20
2023-11-23T02:17:00.665Z,4.20
2023-11-23T02:19:28.817Z,4.10
2023-11-23T02:21:56.866Z,4.10
2023-11-23T02:24:26.314Z,4.10
2023-11-23T02:26:56.162Z,4.10
2023-11-23T02:29:24.249Z,4.10
2023-11-23T02:31:52.347Z,4.10
2023-11-23T02:34:20.414Z,3.90
2023-11-23T02:36:49.287Z,4.00
2023-11-23T02:39:17.430Z,4.00
2023-11-23T02:41:47.885Z,4.00
2023-11-23T02:44:16.035Z,4.00
2023-11-23T02:46:44.078Z,4.00
2023-11-23T02:49:12.224Z,3.90
2023-11-23T02:51:40.641Z,4.00
2023-11-23T02:54:08.878Z,4.10
2023-11-23T02:56:37.402Z,4.00
2023-11-23T02:59:09.048Z,4.00
2023-11-23T03:01:37.316Z,4.00
2023-11-23T03:04:06.465Z,4.00
2023-11-23T03:06:34.610Z,4.00
2023-11-23T03:09:02.740Z,4.00
2023-11-23T03:11:30.939Z,4.00
2023-11-23T03:13:59.537Z,4.00
2023-11-23T03:16:29.023Z,3.90
2023-11-23T03:18:57.181Z,4.00
2023-11-23T03:21:25.369Z,3.90
2023-11-23T03:23:54.328Z,3.90
2023-11-23T03:26:22.598Z,3.90
2023-11-23T03:28:50.726Z,3.90
2023-11-23T03:31:18.833Z,3.80
2023-11-23T03:33:48.387Z,3.80
2023-11-23T03:36:16.500Z,3.90
2023-11-23T03:38:44.577Z,3.90
2023-11-23T03:41:12.775Z,3.80
2023-11-23T03:43:40.856Z,3.80
2023-11-23T03:46:09.234Z,3.70
2023-11-23T03:48:37.417Z,3.70
2023-11-23T03:51:07.516Z,3.80
2023-11-23T03:53:35.642Z,3.70
2023-11-23T03:56:03.770Z,3.70
2023-11-23T03:58:33.179Z,3.70
2023-11-23T04:01:02.157Z,3.70
2023-11-23T04:03:30.264Z,3.60
2023-11-23T04:05:59.699Z,3.60
2023-11-23T04:08:28.216Z,3.70
2023-11-23T04:10:56.256Z,3.70
2023-11-23T04:13:24.291Z,3.60
2023-11-23T04:15:52.324Z,3.60
2023-11-23T04:18:19.669Z,3.70
2023-11-23T04:20:47.690Z,3.60
2023-11-23T04:23:16.258Z,3.60
2023-11-23T04:25:46.299Z,3.60
2023-11-23T04:28:14.849Z,3.60
2023-11-23T04:30:42.971Z,3.60
2023-11-23T04:33:11.147Z,3.60
2023-11-23T04:35:39.293Z,3.50
2023-11-23T04:38:07.366Z,3.60
2023-11-23T04:40:35.400Z,3.60
2023-11-23T04:43:05.044Z,3.60
2023-11-23T04:45:33.227Z,3.60
2023-11-23T04:48:01.411Z,3.60
2023-11-23T04:50:29.579Z,3.60
2023-11-23T04:52:58.531Z,3.60
2023-11-23T04:55:29.259Z,3.70
2023-11-23T04:57:57.465Z,3.70
2023-11-23T05:00:27.407Z,3.70
2023-11-23T05:02:55.782Z,3.60
2023-11-23T05:05:24.063Z,3.60
2023-11-23T05:07:52.264Z,3.70
2023-11-23T05:10:21.232Z,3.70
2023-11-23T05:12:49.346Z,3.70
2023-11-23T05:15:18.267Z,3.70
2023-11-23T05:17:47.896Z,3.70
2023-11-23T05:20:16.331Z,3.70
2023-11-23T05:22:47.004Z,3.70
2023-11-23T05:25:15.969Z,3.70
2023-11-23T05:27:44.119Z,3.70
2023-11-23T05:30:13.211Z,3.70
2023-11-23T05:32:41.639Z,3.70
2023-11-23T05:35:11.492Z,3.70
2023-11-23T05:37:39.583Z,3.70
2023-11-23T05:40:10.314Z,3.70
2023-11-23T05:42:38.632Z,3.70
2023-11-23T05:45:07.600Z,3.60
2023-11-23T05:47:35.831Z,3.60
2023-11-23T05:50:04.023Z,3.50
2023-11-23T05:52:33.537Z,3.60
2023-11-23T05:55:01.645Z,3.70
2023-11-23T05:57:29.770Z,3.80
2023-11-23T05:59:57.901Z,3.80
2023-11-23T06:02:26.213Z,3.80
2023-11-23T06:04:54.382Z,3.70
2023-11-23T06:07:22.480Z,3.70
2023-11-23T06:09:52.331Z,3.70
2023-11-23T06:12:20.988Z,3.70
2023-11-23T06:14:49.111Z,3.60
2023-11-23T06:17:17.249Z,3.70
2023-11-23T06:19:45.544Z,3.70
2023-11-23T06:22:13.623Z,3.70
2023-11-23T06:24:41.789Z,3.70
2023-11-23T06:27:11.565Z,3.70
2023-11-23T06:29:39.774Z,3.80
2023-11-23T06:32:08.586Z,3.70
2023-11-23T06:34:40.466Z,3.60
2023-11-23T06:37:09.363Z,3.50
2023-11-23T06:39:38.490Z,3.60
2023-11-23T06:42:06.919Z,3.50
2023-11-23T06:44:36.717Z,3.50
2023-11-23T06:47:05.391Z,3.50
2023-11-23T06:49:33.935Z,3.60
2023-11-23T06:52:02.654Z,3.60
2023-11-23T06:54:30.865Z,3.60
2023-11-23T06:56:59.033Z,3.60
2023-11-23T06:59:27.108Z,3.60
2023-11-23T07:01:56.958Z,3.60
2023-11-23T07:04:25.294Z,3.60
2023-11-23T07:06:53.438Z,3.60
2023-11-23T07:09:22.477Z,3.60
2023-11-23T07:11:55.247Z,3.70
2023-11-23T07:14:26.150Z,3.70
2023-11-23T07:16:56.112Z,3.70
2023-11-23T07:19:25.576Z,3.80
2023-11-23T07:21:53.661Z,3.80
2023-11-23T07:24:24.120Z,3.90
2023-11-23T07:26:52.212Z,4.00
2023-11-23T07:29:20.356Z,4.00
2023-11-23T07:31:49.919Z,4.10
2023-11-23T07:34:18.054Z,4.10
2023-11-23T07:36:47.936Z,4.20
2023-11-23T07:39:18.133Z,4.30
2023-11-23T07:41:46.357Z,4.30
2023-11-23T07:44:14.600Z,4.30
2023-11-23T07:46:42.727Z,4.30
2023-11-23T07:49:11.138Z,4.30
2023-11-23T07:51:39.273Z,4.40
2023-11-23T07:54:10.530Z,4.30
2023-11-23T07:56:38.673Z,4.30
2023-11-23T07:59:06.869Z,4.30
2023-11-23T08:01:35.060Z,4.50
2023-11-23T08:04:06.105Z,4.50
2023-11-23T08:06:34.744Z,4.50
2023-11-23T08:09:02.862Z,4.50
2023-11-23T08:11:33.122Z,4.50
2023-11-23T08:14:01.512Z,4.50
2023-11-23T08:16:29.701Z,4.60
2023-11-23T08:18:57.931Z,4.60
2023-11-23T08:21:26.448Z,4.70
2023-11-23T08:23:55.947Z,4.70
2023-11-23T08:26:24.073Z,4.80
2023-11-23T08:28:53.494Z,4.80
2023-11-23T08:31:23.249Z,4.80
2023-11-23T08:33:51.373Z,4.90
2023-11-23T08:36:19.555Z,5.00
2023-11-23T08:38:48.145Z,5.10
2023-11-23T08:41:17.913Z,5.20
2023-11-23T08:43:46.587Z,5.30
2023-11-23T08:46:16.309Z,5.30
2023-11-23T08:48:44.503Z,5.30
2023-11-23T08:51:13.047Z,5.30
2023-11-23T08:53:41.092Z,5.40
2023-11-23T08:56:09.501Z,5.40
2023-11-23T08:58:37.646Z,5.40
2023-11-23T09:01:06.313Z,5.40
2023-11-23T09:03:35.866Z,5.30
2023-11-23T09:06:04.308Z,5.30
2023-11-23T09:08:33.247Z,5.40
2023-11-23T09:11:01.403Z,5.40
2023-11-23T09:13:31.528Z,5.40
2023-11-23T09:15:59.688Z,5.50
2023-11-23T09:18:27.897Z,5.50
2023-11-23T09:20:59.359Z,5.50
2023-11-23T09:23:29.400Z,5.50
2023-11-23T09:25:57.509Z,5.60
2023-11-23T09:28:26.199Z,5.60
2023-11-23T09:30:54.281Z,5.70
2023-11-23T09:33:24.481Z,5.70
2023-11-23T09:35:53.390Z,5.70
2023-11-23T09:38:23.622Z,5.70
2023-11-23T09:40:59.862Z,5.80
2023-11-23T09:43:28.428Z,5.80
2023-11-23T09:45:57.245Z,5.90
2023-11-23T09:48:29.941Z,5.90
2023-11-23T09:50:58.867Z,6.00
2023-11-23T09:53:30.202Z,6.10
2023-11-23T09:55:59.346Z,6.10
2023-11-23T09:58:27.568Z,6.20
2023-11-23T10:00:56.302Z,6.20
2023-11-23T10:03:26.318Z,6.30
2023-11-23T10:05:54.533Z,6.30
2023-11-23T10:08:22.644Z,6.50
2023-11-23T10:10:52.740Z,7.00
2023-11-23T10:13:21.524Z,7.80
2023-11-23T10:15:50.091Z,7.60
2023-11-23T10:18:19.112Z,7.40
2023-11-23T10:20:47.986Z,7.20
2023-11-23T10:23:16.150Z,7.00
2023-11-23T10:25:44.251Z,6.90
2023-11-23T10:28:13.720Z,6.80
2023-11-23T10:30:42.764Z,6.80
2023-11-23T10:33:13.010Z,6.70
2023-11-23T10:35:46.956Z,6.70
2023-11-23T10:38:17.651Z,6.60
2023-11-23T10:40:46.753Z,6.60
2023-11-23T10:43:18.847Z,6.50
2023-11-23T10:45:50.046Z,6.40
2023-11-23T10:48:21.424Z,6.50
2023-11-23T10:50:50.637Z,6.50
2023-11-23T10:53:18.752Z,6.40
2023-11-23T10:55:50.791Z,6.50
2023-11-23T10:58:21.766Z,6.50
2023-11-23T11:00:50.716Z,6.60
2023-11-23T11:03:20.590Z,6.60
2023-11-23T11:05:52.015Z,6.60
2023-11-23T11:08:21.900Z,6.60
2023-11-23T11:10:52.310Z,6.60
2023-11-23T11:13:24.598Z,6.70
2023-11-23T11:15:54.208Z,6.70
2023-11-23T11:18:27.124Z,6.60
2023-11-23T11:21:13.245Z,6.60
2023-11-23T11:23:42.806Z,6.70
2023-11-23T11:26:12.245Z,6.60
2023-11-23T11:28:42.201Z,6.70
2023-11-23T11:31:14.768Z,6.70
2023-11-23T11:33:43.278Z,6.80
2023-11-23T11:36:14.097Z,6.70
2023-11-23T11:38:44.328Z,6.80
2023-11-23T11:41:12.804Z,6.80
2023-11-23T11:43:45.587Z,6.90
2023-11-23T11:46:14.156Z,7.00
2023-11-23T11:48:42.596Z,7.00
2023-11-23T11:51:11.039Z,7.10
2023-11-23T11:53:41.566Z,7.10
2023-11-23T11:56:10.769Z,7.20
2023-11-23T11:58:39.852Z,7.00
2023-11-23T12:01:10.499Z,7.10
2023-11-23T12:03:38.641Z,7.20
2023-11-23T12:06:07.742Z,7.30
2023-11-23T12:08:36.532Z,7.20
2023-11-23T12:11:06.661Z,7.20
2023-11-23T12:13:37.114Z,7.20
2023-11-23T12:16:05.580Z,7.20
2023-11-23T12:18:37.267Z,7.20
2023-11-23T12:21:05.858Z,7.20
2023-11-23T12:23:42.855Z,7.40
2023-11-23T12:26:11.797Z,7.40
2023-11-23T12:28:40.145Z,7.50
2023-11-23T12:31:09.270Z,7.50
2023-11-23T12:33:39.124Z,7.50
2023-11-23T12:36:08.000Z,7.60
2023-11-23T12:38:36.166Z,7.60
2023-11-23T12:41:04.445Z,7.60
2023-11-23T12:43:32.713Z,7.70
2023-11-23T12:46:00.918Z,7.70
2023-11-23T12:48:29.157Z,7.80
2023-11-23T12:51:00.190Z,7.80
2023-11-23T12:53:30.536Z,7.70
2023-11-23T12:55:59.121Z,7.60
2023-11-23T12:58:27.229Z,7.60
2023-11-23T13:00:55.342Z,7.70
2023-11-23T13:03:24.717Z,7.70
2023-11-23T13:05:54.308Z,7.70
2023-11-23T13:08:25.004Z,7.80
2023-11-23T13:10:53.241Z,7.80
2023-11-23T13:13:21.436Z,7.90
2023-11-23T13:15:49.544Z,7.90
2023-11-23T13:18:17.892Z,7.90
2023-11-23T13:20:46.614Z,7.90
2023-11-23T13:23:16.093Z,7.90
2023-11-23T13:25:46.352Z,8.00
2023-11-23T13:28:14.724Z,8.00
2023-11-23T13:30:44.280Z,8.00
2023-11-23T13:33:21.517Z,8.00
2023-11-23T13:35:49.839Z,8.00
2023-11-23T13:38:17.906Z,8.00
2023-11-23T13:40:49.003Z,8.00
2023-11-23T13:43:18.012Z,8.00
2023-11-23T13:45:50.659Z,7.90
2023-11-23T13:48:19.377Z,8.00
2023-11-23T13:50:49.218Z,8.00
2023-11-23T13:53:17.416Z,7.90
2023-11-23T13:55:47.191Z,8.00
2023-11-23T13:58:15.455Z,7.90
2023-11-23T14:00:43.991Z,7.90
2023-11-23T14:03:12.194Z,7.90
2023-11-23T14:05:40.593Z,7.90
2023-11-23T14:08:08.717Z,7.90
2023-11-23T14:10:36.814Z,7.90
2023-11-23T14:13:06.477Z,7.90
2023-11-23T14:15:35.000Z,7.80
2023-11-23T14:18:04.580Z,7.70
2023-11-23T14:20:33.250Z,7.70
2023-11-23T14:23:01.284Z,7.60
2023-11-23T14:25:29.917Z,7.60
2023-11-23T14:27:59.410Z,7.50
2023-11-23T14:30:29.668Z,7.40
2023-11-23T14:32:57.812Z,7.50
2023-11-23T14:35:26.206Z,7.50
2023-11-23T14:37:54.530Z,7.60
2023-11-23T14:40:22.692Z,7.60
2023-11-23T14:42:56.267Z,7.60
2023-11-23T14:45:28.406Z,7.60
2023-11-23T14:47:59.826Z,7.60
2023-11-23T14:50:30.456Z,7.60
2023-11-23T14:52:59.533Z,7.60
2023-11-23T14:55:27.931Z,7.50
2023-11-23T14:57:56.060Z,7.60
2023-11-23T15:00:25.255Z,7.60
2023-11-23T15:02:56.584Z,7.60
2023-11-23T15:05:26.135Z,7.50
2023-11-23T15:07:54.703Z,7.50
2023-11-23T15:10:25.062Z,7.50
2023-11-23T15:12:54.499Z,7.50
2023-11-23T15:15:27.590Z,7.60
2023-11-23T15:17:58.221Z,7.60
2023-11-23T15:20:27.950Z,7.60
2023-11-23T15:22:56.041Z,7.50
2023-11-23T15:25:24.799Z,7.60
2023-11-23T15:27:55.796Z,7.60
2023-11-23T15:30:24.294Z,7.60
2023-11-23T15:32:54.269Z,7.60
2023-11-23T15:35:22.543Z,7.60
2023-11-23T15:37:52.183Z,7.60
2023-11-23T15:40:20.836Z,7.60
2023-11-23T15:42:49.308Z,7.70
2023-11-23T15:45:18.844Z,7.70
2023-11-23T15:47:47.106Z,7.60
2023-11-23T15:50:16.040Z,7.70
2023-11-23T15:52:44.166Z,7.60
2023-11-23T15:55:13.590Z,7.60
2023-11-23T15:57:43.450Z,7.60
2023-11-23T16:00:13.580Z,7.70
2023-11-23T16:02:44.483Z,7.60
2023-11-23T16:05:14.162Z,7.60
2023-11-23T16:07:42.555Z,7.70
2023-11-23T16:10:11.014Z,7.70
2023-11-23T16:12:42.163Z,7.70
2023-11-23T16:15:11.881Z,7.70
2023-11-23T16:17:40.498Z,7.60
2023-11-23T16:20:12.005Z,7.50
2023-11-23T16:22:40.072Z,7.50
2023-11-23T16:25:09.317Z,7.50
2023-11-23T16:27:37.728Z,7.50
2023-11-23T16:30:13.202Z,7.50
2023-11-23T16:32:43.242Z,7.50
2023-11-23T16:35:12.958Z,7.40
2023-11-23T16:37:41.273Z,7.50
2023-11-23T16:40:12.204Z,7.50
2023-11-23T16:42:43.161Z,7.40
2023-11-23T16:45:13.739Z,7.50
2023-11-23T16:47:42.770Z,7.50
2023-11-23T16:50:12.479Z,7.60
2023-11-23T16:52:40.714Z,7.60
2023-11-23T16:55:10.312Z,7.60
2023-11-23T16:57:40.312Z,7.60
2023-11-23T17:00:12.903Z,7.60
2023-11-23T17:02:43.327Z,7.60
2023-11-23T17:05:11.965Z,7.60
2023-11-23T17:07:40.179Z,7.60
2023-11-23T17:10:10.020Z,7.60
2023-11-23T17:12:38.798Z,7.50
2023-11-23T17:15:09.185Z,7.60
2023-11-23T17:17:45.745Z,7.60
2023-11-23T17:20:16.949Z,7.60
2023-11-23T17:22:45.907Z,7.60
2023-11-23T17:25:14.181Z,7.50
2023-11-23T17:27:48.113Z,7.50
2023-11-23T17:30:17.018Z,7.50
2023-11-23T17:32:45.121Z,7.50
2023-11-23T17:35:13.376Z,7.50
2023-11-23T17:37:43.021Z,7.50
2023-11-23T17:40:13.908Z,7.50
2023-11-23T17:42:43.134Z,7.50
2023-11-23T17:45:12.303Z,7.50
2023-11-23T17:47:40.472Z,7.50
2023-11-23T17:50:10.709Z,7.50
2023-11-23T17:52:38.837Z,7.50
2023-11-23T17:55:09.885Z,7.60
2023-11-23T17:57:39.141Z,7.60
2023-11-23T18:00:09.022Z,7.60
2023-11-23T18:02:37.257Z,7.60
2023-11-23T18:05:06.057Z,7.60
2023-11-23T18:07:34.192Z,7.60
2023-11-23T18:10:02.257Z,7.70
2023-11-23T18:12:31.717Z,7.60
2023-11-23T18:14:59.848Z,7.60
2023-11-23T18:17:28.010Z,7.60
2023-11-23T18:19:56.124Z,7.60
2023-11-23T18:22:24.488Z,7.60
2023-11-23T18:24:55.286Z,7.60
2023-11-23T18:27:23.587Z,7.60
2023-11-23T18:29:54.734Z,7.70
2023-11-23T18:32:23.137Z,7.60
2023-11-23T18:34:51.383Z,7.70
2023-11-23T18:37:19.491Z,7.70
2023-11-23T18:39:49.266Z,7.70
2023-11-23T18:42:17.595Z,7.70
2023-11-23T18:44:45.697Z,7.70
2023-11-23T18:47:15.239Z,7.70
2023-11-23T18:49:43.389Z,7.80
2023-11-23T18:52:12.506Z,7.80
2023-11-23T18:54:40.671Z,7.70
2023-11-23T18:57:08.778Z,7.70
2023-11-23T18:59:36.926Z,7.70
2023-11-23T19:02:06.199Z,7.70
2023-11-23T19:04:37.152Z,7.70
2023-11-23T19:07:06.958Z,7.80
2023-11-23T19:09:35.448Z,7.80
2023-11-23T19:12:05.402Z,7.90
2023-11-23T19:14:34.044Z,7.90
2023-11-23T19:17:05.253Z,8.00
2023-11-23T19:19:35.444Z,8.00
2023-11-23T19:22:04.077Z,8.00
2023-11-23T19:24:32.742Z,8.00
2023-11-23T19:27:01.313Z,8.00
2023-11-23T19:29:38.774Z,8.00
2023-11-23T19:32:21.089Z,8.00
2023-11-23T19:34:52.391Z,8.10
2023-11-23T19:37:21.386Z,8.10
2023-11-23T19:39:51.424Z,8.10
2023-11-23T19:42:21.123Z,8.10
2023-11-23T19:44:50.013Z,8.10
2023-11-23T19:47:18.825Z,8.10
2023-11-23T19:49:48.402Z,8.10
2023-11-23T19:52:24.058Z,8.10
2023-11-23T19:54:52.588Z,8.10
2023-11-23T19:57:21.017Z,8.20
2023-11-23T19:59:49.708Z,8.20
2023-11-23T20:02:17.922Z,8.20
2023-11-23T20:04:46.352Z,8.20
2023-11-23T20:07:14.565Z,8.10
2023-11-23T20:09:45.329Z,8.20
2023-11-23T20:12:14.294Z,8.20
2023-11-23T20:14:42.488Z,8.20
2023-11-23T20:17:11.225Z,8.20
2023-11-23T20:19:39.383Z,8.20
2023-11-23T20:22:07.918Z,8.20
2023-11-23T20:24:36.208Z,8.30
2023-11-23T20:27:10.620Z,8.30
2023-11-23T20:29:38.903Z,8.30
2023-11-23T20:32:07.733Z,8.30
2023-11-23T20:34:36.000Z,8.20
2023-11-23T20:37:04.922Z,8.30
2023-11-23T20:39:34.029Z,8.30
2023-11-23T20:42:04.863Z,8.30
2023-11-23T20:44:34.667Z,8.30
2023-11-23T20:47:02.886Z,8.30
2023-11-23T20:49:32.351Z,8.30
2023-11-23T20:52:00.603Z,8.30
2023-11-23T20:54:29.069Z,8.30
2023-11-23T20:56:57.808Z,8.40
2023-11-23T20:59:27.798Z,8.40
2023-11-23T21:01:57.967Z,8.40
2023-11-23T21:04:30.232Z,8.40
2023-11-23T21:07:02.497Z,8.30
2023-11-23T21:09:31.820Z,8.30
2023-11-23T21:12:03.479Z,8.30
2023-11-23T21:14:33.842Z,8.40
2023-11-23T21:17:03.328Z,8.30
2023-11-23T21:19:31.433Z,8.20
2023-11-23T21:22:00.246Z,8.20
2023-11-23T21:24:28.517Z,8.20
2023-11-23T21:26:57.386Z,8.20
2023-11-23T21:29:26.167Z,8.20
2023-11-23T21:31:54.838Z,8.20
2023-11-23T21:34:24.393Z,8.20
2023-11-23T21:36:52.700Z,8.20
2023-11-23T21:39:24.381Z,8.20
2023-11-23T21:41:52.611Z,8.20
2023-11-23T21:44:20.766Z,8.20
2023-11-23T21:46:49.156Z,8.20
2023-11-23T21:49:17.327Z,8.20
2023-11-23T21:51:46.976Z,8.20
2023-11-23T21:54:15.197Z,8.20
2023-11-23T21:56:43.393Z,8.20
2023-11-23T21:59:11.652Z,8.20
2023-11-23T22:01:39.986Z,8.20
2023-11-23T22:04:08.371Z,8.20
2023-11-23T22:06:36.690Z,8.20
2023-11-23T22:09:07.352Z,8.20
2023-11-23T22:11:35.554Z,8.10
2023-11-23T22:14:03.731Z,8.20
2023-11-23T22:16:32.453Z,8.10
2023-11-23T22:19:01.013Z,8.10
2023-11-23T22:21:30.791Z,8.10
2023-11-23T22:23:59.480Z,8.00
2023-11-23T22:26:30.041Z,8.00
2023-11-23T22:28:58.730Z,8.00
2023-11-23T22:31:28.350Z,8.00
2023-11-23T22:33:57.018Z,8.00
2023-11-23T22:36:25.818Z,8.00
2023-11-23T22:38:55.239Z,8.00
2023-11-23T22:41:24.786Z,8.00
2023-11-23T22:43:55.596Z,8.00
2023-11-23T22:46:24.293Z,8.00
2023-11-23T22:48:52.497Z,8.00
2023-11-23T22:51:20.659Z,8.00
2023-11-23T22:53:48.954Z,8.10
2023-11-23T22:56:17.057Z,8.10
2023-11-23T22:58:45.184Z,8.10
2023-11-23T23:01:15.269Z,8.10
2023-11-23T23:03:44.818Z,8.10
2023-11-23T23:06:14.358Z,8.10
2023-11-23T23:08:42.653Z,8.10
2023-11-23T23:11:11.959Z,8.10
2023-11-23T23:13:40.161Z,8.20
2023-11-23T23:16:08.714Z,8.10
2023-11-23T23:18:38.277Z,8.20
2023-11-23T23:21:06.708Z,8.20
2023-11-23T23:23:35.015Z,8.20
2023-11-23T23:26:03.923Z,8.20
2023-11-23T23:28:32.858Z,8.20
2023-11-23T23:31:01.641Z,8.20
2023-11-23T23:33:30.340Z,8.20
2023-11-23T23:36:00.105Z,8.20
2023-11-23T23:38:28.279Z,8.20
2023-11-23T23:40:56.375Z,8.20
2023-11-23T23:43:24.450Z,8.20
2023-11-23T23:45:52.621Z,8.20
2023-11-23T23:48:20.770Z,8.20
2023-11-23T23:50:48.926Z,8.20
2023-11-23T23:53:18.299Z,8.20
2023-11-23T23:55:47.049Z,8.20
2023-11-23T23:58:16.380Z,8.20
